createdAt,value
2018-06-29T00:01:45.989Z,15.20
2018-06-29T00:04:13.860Z,15.20
2018-06-29T00:06:41.733Z,15.20
2018-06-29T00:09:09.893Z,15.20
2018-06-29T00:11:37.795Z,15.20
2018-06-29T00:14:05.740Z,15.20
2018-06-29T00:16:33.569Z,15.20
2018-06-29T00:19:01.524Z,15.20
2018-06-29T00:21:29.528Z,15.20
2018-06-29T00:23:57.355Z,15.20
2018-06-29T00:26:25.116Z,15.10
2018-06-29T00:28:52.896Z,15.10
2018-06-29T00:31:20.679Z,15.10
2018-06-29T00:33:48.563Z,15.10
2018-06-29T00:36:16.564Z,15.10
2018-06-29T00:38:44.481Z,15.10
2018-06-29T00:41:12.547Z,15.10
2018-06-29T00:43:40.384Z,15.10
2018-06-29T00:46:08.153Z,15.10
2018-06-29T00:48:36.120Z,15.10
2018-06-29T00:51:03.931Z,15.10
2018-06-29T00:53:31.726Z,15.10
2018-06-29T00:55:59.704Z,15.10
2018-06-29T00:58:27.633Z,15.10
2018-06-29T01:00:55.659Z,15.10
2018-06-29T01:03:23.638Z,15.10
2018-06-29T01:05:51.439Z,15.10
2018-06-29T01:08:19.407Z,15.10
2018-06-29T01:10:47.152Z,15.00
2018-06-29T01:13:15.221Z,15.00
2018-06-29T01:15:43.183Z,15.00
2018-06-29T01:18:11.136Z,15.00
2018-06-29T01:20:39.321Z,15.00
2018-06-29T01:23:07.409Z,15.00
2018-06-29T01:25:35.481Z,15.00
2018-06-29T01:28:03.288Z,15.00
2018-06-29T01:30:31.152Z,15.00
2018-06-29T01:32:58.990Z,15.00
2018-06-29T01:35:26.896Z,15.00
2018-06-29T01:37:55.840Z,14.90
2018-06-29T01:40:23.672Z,15.00
2018-06-29T01:42:51.472Z,15.00
2018-06-29T01:45:19.448Z,15.00
2018-06-29T01:47:47.324Z,15.00
2018-06-29T01:50:15.252Z,15.00
2018-06-29T01:52:43.177Z,14.90
2018-06-29T01:55:11.864Z,15.00
2018-06-29T01:57:39.699Z,14.90
2018-06-29T02:00:07.650Z,15.00
2018-06-29T02:02:35.644Z,15.00
2018-06-29T02:05:03.742Z,14.90
2018-06-29T02:07:31.700Z,15.00
2018-06-29T02:12:27.718Z,15.00
2018-06-29T02:14:55.540Z,15.00
2018-06-29T02:19:51.117Z,14.90
2018-06-29T02:22:18.943Z,15.00
2018-06-29T02:27:15.073Z,15.00
2018-06-29T02:32:10.640Z,15.00
2018-06-29T02:34:38.999Z,15.00
2018-06-29T02:37:06.860Z,15.00
2018-06-29T02:39:34.768Z,15.00
2018-06-29T02:42:02.646Z,15.00
2018-06-29T02:44:30.698Z,15.00
2018-06-29T02:46:58.877Z,15.00
2018-06-29T02:51:54.674Z,15.00
2018-06-29T02:54:22.460Z,15.00
2018-06-29T02:56:50.206Z,15.00
2018-06-29T02:59:17.940Z,15.00
2018-06-29T03:01:45.687Z,15.00
2018-06-29T03:04:13.390Z,15.00
2018-06-29T03:06:41.443Z,15.00
2018-06-29T03:09:09.908Z,15.00
2018-06-29T03:11:37.882Z,15.00
2018-06-29T03:14:05.501Z,15.00
2018-06-29T03:19:00.509Z,15.10
2018-06-29T03:21:28.070Z,15.10
2018-06-29T03:23:55.586Z,15.10
2018-06-29T03:26:23.099Z,15.10
2018-06-29T03:31:18.280Z,15.10
2018-06-29T03:33:45.790Z,15.10
2018-06-29T03:36:13.297Z,15.10
2018-06-29T03:38:40.851Z,15.10
2018-06-29T03:41:08.369Z,15.20
2018-06-29T03:43:36.113Z,15.20
2018-06-29T03:46:03.697Z,15.20
2018-06-29T03:48:31.233Z,15.20
2018-06-29T03:50:58.789Z,15.20
2018-06-29T03:53:26.343Z,15.30
2018-06-29T03:55:53.891Z,15.30
2018-06-29T03:58:21.461Z,15.30
2018-06-29T04:00:49.031Z,15.30
2018-06-29T04:03:16.727Z,15.30
2018-06-29T04:05:44.225Z,15.40
2018-06-29T04:08:11.710Z,15.30
2018-06-29T04:10:39.330Z,15.40
2018-06-29T04:13:06.862Z,15.40
2018-06-29T04:15:34.410Z,15.50
2018-06-29T04:18:01.956Z,15.50
2018-06-29T04:20:30.005Z,15.60
2018-06-29T04:22:57.956Z,15.60
2018-06-29T04:25:25.660Z,15.60
2018-06-29T04:27:53.201Z,15.60
2018-06-29T04:30:20.744Z,15.60
2018-06-29T04:32:52.223Z,15.60
2018-06-29T04:35:19.793Z,15.60
2018-06-29T04:37:47.503Z,15.60
2018-06-29T04:40:15.018Z,15.60
2018-06-29T04:42:42.574Z,15.70
2018-06-29T04:45:14.266Z,15.70
2018-06-29T04:47:41.887Z,15.70
2018-06-29T04:50:09.564Z,15.80
2018-06-29T04:55:04.806Z,15.90
2018-06-29T04:57:32.541Z,15.90
2018-06-29T05:00:00.075Z,15.90
2018-06-29T05:02:28.787Z,16.00
2018-06-29T05:04:56.290Z,16.00
2018-06-29T05:07:23.833Z,16.00
2018-06-29T05:09:51.390Z,16.00
2018-06-29T05:12:18.897Z,16.10
2018-06-29T05:17:13.934Z,16.20
2018-06-29T05:19:42.230Z,16.20
2018-06-29T05:22:09.870Z,16.20
2018-06-29T05:24:37.433Z,16.20
2018-06-29T05:27:05.022Z,16.20
2018-06-29T05:29:32.606Z,16.20
2018-06-29T05:32:00.269Z,16.30
2018-06-29T05:34:28.637Z,16.30
2018-06-29T05:36:56.234Z,16.30
2018-06-29T05:39:23.803Z,16.30
2018-06-29T05:41:51.294Z,16.30
2018-06-29T05:44:19.162Z,16.40
2018-06-29T05:46:46.670Z,16.50
2018-06-29T05:51:41.778Z,16.70
2018-06-29T05:54:09.466Z,16.90
2018-06-29T05:56:36.966Z,16.90
2018-06-29T05:59:04.606Z,17.00
2018-06-29T06:01:32.286Z,17.00
2018-06-29T06:03:59.838Z,17.10
2018-06-29T06:06:27.438Z,17.00
2018-06-29T06:11:22.434Z,17.00
2018-06-29T06:13:50.391Z,17.00
2018-06-29T06:16:18.071Z,17.00
2018-06-29T06:18:45.787Z,17.00
2018-06-29T06:21:13.279Z,17.00
2018-06-29T06:23:40.822Z,16.90
2018-06-29T06:26:08.334Z,17.00
2018-06-29T06:31:03.463Z,17.10
2018-06-29T06:33:31.237Z,17.10
2018-06-29T06:35:59.010Z,17.10
2018-06-29T06:38:26.655Z,17.20
2018-06-29T06:40:54.213Z,17.20
2018-06-29T06:46:15.432Z,17.40
2018-06-29T06:48:43.296Z,17.50
2018-06-29T06:51:10.878Z,17.40
2018-06-29T06:56:10.973Z,17.50
2018-06-29T06:58:38.716Z,17.50
2018-06-29T07:01:06.321Z,17.50
2018-06-29T07:06:02.026Z,17.40
2018-06-29T07:08:29.829Z,17.40
2018-06-29T07:10:58.209Z,17.30
2018-06-29T07:13:25.896Z,17.20
2018-06-29T07:15:53.505Z,17.20
2018-06-29T07:18:21.308Z,17.20
2018-06-29T07:20:49.041Z,17.10
2018-06-29T07:23:16.681Z,17.10
2018-06-29T07:25:44.301Z,17.20
2018-06-29T07:30:39.557Z,17.20
2018-06-29T07:33:07.246Z,17.30
2018-06-29T07:35:34.832Z,17.40
2018-06-29T07:38:02.846Z,17.40
2018-06-29T07:40:30.440Z,17.40
2018-06-29T07:42:58.039Z,17.40
2018-06-29T07:45:25.771Z,17.40
2018-06-29T07:47:53.380Z,17.40
2018-06-29T07:50:21.040Z,17.50
2018-06-29T07:52:48.898Z,17.50
2018-06-29T07:55:16.460Z,17.50
2018-06-29T07:57:44.163Z,17.60
2018-06-29T08:00:11.777Z,17.60
2018-06-29T08:02:39.372Z,17.70
2018-06-29T08:05:07.063Z,17.80
2018-06-29T08:07:34.676Z,17.90
2018-06-29T08:10:02.591Z,17.90
2018-06-29T08:12:30.234Z,18.00
2018-06-29T08:14:57.877Z,18.10
2018-06-29T08:17:25.791Z,18.20
2018-06-29T08:19:53.447Z,18.30
2018-06-29T08:22:21.111Z,18.40
2018-06-29T08:25:00.156Z,18.50
2018-06-29T08:27:28.027Z,18.50
2018-06-29T08:29:55.689Z,18.50
2018-06-29T08:32:24.406Z,18.50
2018-06-29T08:37:19.575Z,18.60
2018-06-29T08:39:47.184Z,18.60
2018-06-29T08:42:14.864Z,18.50
2018-06-29T08:44:42.458Z,18.60
2018-06-29T08:47:10.139Z,18.80
2018-06-29T08:49:37.816Z,19.00
2018-06-29T08:52:05.655Z,19.30
2018-06-29T08:54:33.232Z,19.60
2018-06-29T08:57:00.904Z,19.80
2018-06-29T08:59:29.461Z,19.90
2018-06-29T09:01:57.419Z,20.00
2018-06-29T09:04:25.258Z,20.10
2018-06-29T09:06:53.013Z,20.20
2018-06-29T09:09:20.777Z,20.20
2018-06-29T09:11:48.364Z,20.20
2018-06-29T09:14:16.076Z,20.30
2018-06-29T09:16:44.024Z,20.50
2018-06-29T09:19:11.868Z,20.60
2018-06-29T09:21:39.563Z,20.70
2018-06-29T09:24:07.177Z,20.90
2018-06-29T09:26:34.781Z,21.10
2018-06-29T09:29:02.384Z,21.40
2018-06-29T09:31:29.971Z,21.60
2018-06-29T09:36:25.143Z,22.10
2018-06-29T09:38:53.068Z,22.20
2018-06-29T09:41:20.636Z,22.20
2018-06-29T09:43:48.908Z,22.00
2018-06-29T09:46:16.515Z,22.10
2018-06-29T09:48:44.241Z,22.20
2018-06-29T09:51:11.977Z,22.30
2018-06-29T09:53:39.543Z,22.30
2018-06-29T09:56:07.179Z,22.60
2018-06-29T09:58:34.742Z,22.90
2018-06-29T10:01:02.344Z,23.10
2018-06-29T10:03:29.917Z,23.20
2018-06-29T10:05:57.538Z,23.40
2018-06-29T10:08:25.301Z,23.50
2018-06-29T10:10:52.957Z,23.60
2018-06-29T10:13:20.544Z,23.70
2018-06-29T10:15:48.135Z,23.80
2018-06-29T10:18:15.738Z,23.80
2018-06-29T10:20:43.332Z,23.80
2018-06-29T10:23:10.928Z,23.90
2018-06-29T10:25:38.793Z,23.90
2018-06-29T10:28:06.443Z,23.80
2018-06-29T10:30:34.095Z,23.80
2018-06-29T10:33:01.702Z,23.80
2018-06-29T10:35:29.341Z,23.80
2018-06-29T10:37:57.111Z,23.80
2018-06-29T10:40:24.696Z,23.80
2018-06-29T10:42:52.517Z,23.80
2018-06-29T10:45:20.089Z,23.90
2018-06-29T10:47:47.668Z,23.90
2018-06-29T10:50:15.245Z,24.00
2018-06-29T10:52:43.785Z,24.10
2018-06-29T10:55:11.439Z,24.30
2018-06-29T10:57:39.131Z,24.40
2018-06-29T11:00:06.798Z,24.40
2018-06-29T11:02:34.412Z,24.90
2018-06-29T11:05:02.200Z,25.70
2018-06-29T11:07:29.824Z,26.60
2018-06-29T11:09:57.455Z,27.30
2018-06-29T11:12:26.096Z,28.00
2018-06-29T11:17:21.417Z,29.00
2018-06-29T11:19:49.034Z,29.30
2018-06-29T11:22:16.651Z,29.80
2018-06-29T11:27:12.132Z,30.60
2018-06-29T11:29:39.761Z,30.90
2018-06-29T11:32:08.243Z,30.90
2018-06-29T11:34:35.878Z,30.70
2018-06-29T11:37:03.805Z,30.60
2018-06-29T11:39:31.696Z,30.80
2018-06-29T11:41:59.297Z,30.80
2018-06-29T11:44:26.905Z,31.00
2018-06-29T11:46:54.538Z,31.00
2018-06-29T11:49:22.208Z,30.50
2018-06-29T11:51:49.790Z,30.10
2018-06-29T11:54:17.376Z,30.00
2018-06-29T11:56:44.998Z,30.30
2018-06-29T11:59:12.602Z,30.80
2018-06-29T12:01:40.449Z,31.50
2018-06-29T12:04:08.017Z,31.90
2018-06-29T12:06:35.625Z,32.00
2018-06-29T12:09:05.180Z,32.30
2018-06-29T12:11:32.765Z,32.60
2018-06-29T12:14:00.375Z,32.90
2018-06-29T12:16:27.932Z,32.80
2018-06-29T12:18:59.474Z,33.00
2018-06-29T12:21:29.022Z,32.30
2018-06-29T12:23:56.636Z,31.60
2018-06-29T12:28:51.914Z,31.80
2018-06-29T12:31:19.511Z,31.90
2018-06-29T12:36:14.648Z,31.90
2018-06-29T12:38:42.211Z,31.70
2018-06-29T12:41:09.912Z,31.40
2018-06-29T12:43:37.857Z,31.20
2018-06-29T12:46:06.296Z,30.90
2018-06-29T12:48:33.872Z,30.90
2018-06-29T12:51:01.456Z,31.20
2018-06-29T12:53:29.036Z,31.70
2018-06-29T12:55:56.815Z,31.90
2018-06-29T12:58:24.556Z,32.00
2018-06-29T13:00:52.152Z,32.00
2018-06-29T13:03:19.757Z,32.00
2018-06-29T13:05:47.353Z,31.90
2018-06-29T13:08:14.975Z,32.00
2018-06-29T13:10:42.628Z,31.40
2018-06-29T13:13:10.368Z,30.80
2018-06-29T13:15:39.969Z,30.40
2018-06-29T13:18:07.572Z,30.20
2018-06-29T13:20:35.297Z,29.80
2018-06-29T13:23:03.051Z,29.60
2018-06-29T13:25:31.035Z,29.10
2018-06-29T13:27:58.783Z,28.90
2018-06-29T13:30:26.332Z,28.90
2018-06-29T13:32:54.064Z,29.30
2018-06-29T13:35:21.964Z,29.50
2018-06-29T13:37:49.587Z,29.50
2018-06-29T13:40:17.216Z,29.70
2018-06-29T13:42:44.905Z,29.80
2018-06-29T13:45:12.508Z,30.10
2018-06-29T13:47:40.071Z,30.10
2018-06-29T13:50:07.736Z,30.00
2018-06-29T13:52:35.401Z,29.70
2018-06-29T13:55:03.109Z,29.80
2018-06-29T13:57:30.675Z,30.20
2018-06-29T13:59:58.320Z,30.60
2018-06-29T14:02:26.043Z,30.90
2018-06-29T14:04:53.684Z,31.00
2018-06-29T14:07:21.284Z,31.00
2018-06-29T14:09:50.028Z,30.80
2018-06-29T14:12:18.057Z,30.40
2018-06-29T14:14:45.885Z,30.00
2018-06-29T14:17:13.478Z,29.80
2018-06-29T14:22:08.748Z,29.50
2018-06-29T14:24:36.344Z,29.70
2018-06-29T14:27:04.179Z,29.90
2018-06-29T14:29:31.788Z,30.00
2018-06-29T14:34:28.060Z,29.90
2018-06-29T14:36:55.766Z,29.70
2018-06-29T14:39:23.394Z,29.60
2018-06-29T14:41:51.133Z,29.70
2018-06-29T14:44:18.784Z,30.00
2018-06-29T14:46:46.408Z,30.40
2018-06-29T14:49:14.032Z,30.70
2018-06-29T14:51:41.616Z,30.70
2018-06-29T14:54:21.091Z,30.50
2018-06-29T14:56:48.736Z,30.50
2018-06-29T14:59:16.789Z,30.80
2018-06-29T15:01:46.464Z,30.80
2018-06-29T15:04:14.040Z,30.60
2018-06-29T15:06:41.624Z,30.30
2018-06-29T15:09:09.449Z,30.20
2018-06-29T15:11:37.230Z,30.30
2018-06-29T15:14:05.323Z,30.50
2018-06-29T15:16:32.889Z,30.80
2018-06-29T15:19:00.500Z,31.10
2018-06-29T15:21:28.055Z,31.40
2018-06-29T15:23:55.676Z,31.50
2018-06-29T15:26:23.234Z,31.30
2018-06-29T15:28:50.954Z,31.00
2018-06-29T15:31:18.552Z,30.80
2018-06-29T15:33:46.144Z,30.60
2018-06-29T15:36:13.726Z,30.40
2018-06-29T15:38:41.397Z,30.20
2018-06-29T15:43:36.528Z,30.00
2018-06-29T15:46:05.613Z,30.00
2018-06-29T15:48:53.544Z,30.30
2018-06-29T15:53:48.776Z,30.20
2018-06-29T15:56:16.347Z,30.40
2018-06-29T15:58:44.317Z,30.30
2018-06-29T16:01:15.873Z,30.20
2018-06-29T16:03:43.453Z,30.10
2018-06-29T16:06:11.293Z,30.00
2018-06-29T16:08:38.934Z,29.80
2018-06-29T16:11:06.544Z,29.70
2018-06-29T16:13:34.373Z,29.60
2018-06-29T16:16:02.011Z,29.70
2018-06-29T16:18:29.848Z,29.60
2018-06-29T16:20:57.459Z,29.60
2018-06-29T16:23:25.045Z,29.60
2018-06-29T16:25:52.626Z,29.60
2018-06-29T16:28:20.292Z,29.60
2018-06-29T16:30:47.967Z,29.60
2018-06-29T16:33:15.617Z,29.60
2018-06-29T16:35:43.224Z,29.50
2018-06-29T16:38:10.901Z,29.50
2018-06-29T16:40:38.657Z,29.40
2018-06-29T16:48:01.505Z,29.20
2018-06-29T16:50:29.309Z,29.10
2018-06-29T16:52:57.052Z,29.10
2018-06-29T16:55:24.610Z,29.00
2018-06-29T16:57:54.396Z,29.00
2018-06-29T17:00:21.958Z,28.90
2018-06-29T17:02:49.557Z,28.90
2018-06-29T17:05:17.153Z,28.80
2018-06-29T17:07:45.071Z,28.70
2018-06-29T17:10:12.779Z,28.70
2018-06-29T17:12:40.524Z,28.70
2018-06-29T17:15:08.652Z,28.70
2018-06-29T17:17:36.337Z,28.60
2018-06-29T17:20:03.997Z,28.60
2018-06-29T17:22:31.666Z,28.50
2018-06-29T17:24:59.287Z,28.40
2018-06-29T17:27:26.853Z,28.30
2018-06-29T17:29:54.429Z,28.20
2018-06-29T17:32:22.008Z,28.30
2018-06-29T17:34:49.701Z,28.20
2018-06-29T17:39:47.057Z,28.10
2018-06-29T17:42:14.666Z,28.00
2018-06-29T17:44:42.263Z,28.00
2018-06-29T17:47:09.835Z,27.90
2018-06-29T17:49:37.420Z,27.80
2018-06-29T17:52:05.236Z,27.80
2018-06-29T17:54:32.821Z,27.80
2018-06-29T17:57:00.376Z,27.70
2018-06-29T17:59:28.030Z,27.70
2018-06-29T18:01:55.635Z,27.60
2018-06-29T18:04:23.395Z,27.60
2018-06-29T18:06:51.041Z,27.50
2018-06-29T18:09:18.607Z,27.50
2018-06-29T18:11:46.252Z,27.40
2018-06-29T18:14:13.846Z,27.40
2018-06-29T18:16:41.419Z,27.30
2018-06-29T18:19:09.091Z,27.20
2018-06-29T18:21:36.696Z,27.10
2018-06-29T18:24:04.566Z,27.00
2018-06-29T18:26:32.159Z,26.90
2018-06-29T18:28:59.736Z,26.90
2018-06-29T18:31:27.647Z,26.80
2018-06-29T18:33:55.368Z,26.70
2018-06-29T18:36:22.981Z,26.70
2018-06-29T18:38:50.613Z,26.60
2018-06-29T18:41:18.253Z,26.50
2018-06-29T18:43:45.868Z,26.30
2018-06-29T18:46:13.523Z,26.30
2018-06-29T18:48:41.204Z,26.10
2018-06-29T18:51:08.865Z,26.00
2018-06-29T18:53:36.723Z,25.80
2018-06-29T18:56:04.393Z,25.70
2018-06-29T18:58:32.016Z,25.50
2018-06-29T19:00:59.619Z,25.30
2018-06-29T19:03:27.181Z,25.20
2018-06-29T19:05:54.792Z,25.00
2018-06-29T19:08:22.394Z,24.90
2018-06-29T19:10:49.984Z,24.80
2018-06-29T19:13:17.605Z,24.60
2018-06-29T19:15:45.204Z,24.50
2018-06-29T19:18:12.847Z,24.30
2018-06-29T19:20:46.098Z,24.20
2018-06-29T19:23:13.736Z,24.10
2018-06-29T19:25:41.422Z,23.90
2018-06-29T19:28:09.422Z,23.70
2018-06-29T19:30:37.108Z,23.50
2018-06-29T19:33:05.412Z,23.40
2018-06-29T19:35:33.057Z,23.20
2018-06-29T19:38:00.846Z,23.00
2018-06-29T19:40:28.505Z,22.90
2018-06-29T19:42:56.117Z,22.70
2018-06-29T19:45:23.760Z,22.50
2018-06-29T19:47:51.479Z,22.40
2018-06-29T19:50:19.304Z,22.20
2018-06-29T19:52:46.927Z,22.10
2018-06-29T19:57:42.065Z,21.80
2018-06-29T20:00:10.025Z,21.70
2018-06-29T20:02:37.706Z,21.50
2018-06-29T20:05:05.373Z,21.50
2018-06-29T20:07:32.943Z,21.30
2018-06-29T20:10:00.596Z,21.20
2018-06-29T20:12:28.186Z,21.10
2018-06-29T20:14:55.768Z,21.00
2018-06-29T20:17:23.402Z,20.90
2018-06-29T20:19:50.984Z,20.80
2018-06-29T20:22:18.667Z,20.70
2018-06-29T20:24:47.160Z,20.60
2018-06-29T20:29:42.563Z,20.40
2018-06-29T20:32:10.481Z,20.30
2018-06-29T20:34:38.328Z,20.20
2018-06-29T20:37:05.972Z,20.20
2018-06-29T20:39:33.687Z,20.10
2018-06-29T20:42:01.389Z,20.00
2018-06-29T20:44:29.096Z,19.90
2018-06-29T20:46:56.676Z,19.80
2018-06-29T20:49:24.305Z,19.70
2018-06-29T20:54:19.664Z,19.60
2018-06-29T20:56:47.300Z,19.50
2018-06-29T20:59:16.999Z,19.50
2018-06-29T21:01:44.808Z,19.40
2018-06-29T21:04:12.408Z,19.30
2018-06-29T21:06:40.000Z,19.20
2018-06-29T21:11:36.155Z,19.10
2018-06-29T21:14:03.930Z,19.10
2018-06-29T21:16:31.548Z,19.00
2018-06-29T21:18:59.265Z,18.90
2018-06-29T21:21:26.841Z,18.80
2018-06-29T21:23:54.438Z,18.70
2018-06-29T21:28:49.612Z,18.50
2018-06-29T21:31:17.342Z,18.50
2018-06-29T21:33:45.064Z,18.40
2018-06-29T21:36:12.679Z,18.30
2018-06-29T21:38:40.272Z,18.20
2018-06-29T21:41:07.927Z,18.10
2018-06-29T21:43:35.824Z,18.10
2018-06-29T21:46:03.484Z,18.00
2018-06-29T21:48:31.199Z,17.90
2018-06-29T21:50:58.834Z,17.90
2018-06-29T21:53:26.524Z,17.80
2018-06-29T21:55:54.164Z,17.70
2018-06-29T22:00:50.248Z,17.50
2018-06-29T22:03:19.007Z,17.50
2018-06-29T22:05:46.652Z,17.40
2018-06-29T22:08:14.412Z,17.40
2018-06-29T22:10:42.028Z,17.30
2018-06-29T22:13:10.926Z,17.30
2018-06-29T22:15:38.568Z,17.20
2018-06-29T22:18:06.248Z,17.10
2018-06-29T22:20:33.856Z,17.10
2018-06-29T22:23:01.585Z,17.10
2018-06-29T22:25:29.316Z,17.00
2018-06-29T22:27:56.954Z,17.00
2018-06-29T22:30:24.572Z,16.90
2018-06-29T22:32:52.248Z,16.80
2018-06-29T22:35:21.004Z,16.80
2018-06-29T22:37:48.638Z,16.70
2018-06-29T22:40:16.460Z,16.70
2018-06-29T22:42:44.036Z,16.60
2018-06-29T22:45:11.627Z,16.60
2018-06-29T22:47:39.265Z,16.50
2018-06-29T22:50:06.968Z,16.50
2018-06-29T22:52:34.598Z,16.40
2018-06-29T22:55:02.228Z,16.30
2018-06-29T22:57:30.012Z,16.30
2018-06-29T22:59:57.564Z,16.30
2018-06-29T23:02:25.150Z,16.20
2018-06-29T23:04:52.763Z,16.20
2018-06-29T23:07:20.403Z,16.10
2018-06-29T23:09:48.005Z,16.10
2018-06-29T23:12:15.616Z,16.10
2018-06-29T23:14:43.215Z,16.00
2018-06-29T23:17:10.893Z,16.00
2018-06-29T23:19:38.627Z,15.90
2018-06-29T23:22:06.597Z,15.90
2018-06-29T23:24:34.192Z,15.80
2018-06-29T23:27:06.765Z,15.80
2018-06-29T23:29:34.364Z,15.80
2018-06-29T23:32:01.969Z,15.70
2018-06-29T23:34:29.595Z,15.70
2018-06-29T23:36:57.152Z,15.70
2018-06-29T23:41:52.812Z,15.60
2018-06-29T23:44:20.417Z,15.50
2018-06-29T23:46:48.016Z,15.50
2018-06-29T23:49:16.624Z,15.50
2018-06-29T23:51:44.243Z,15.40
2018-06-29T23:54:12.115Z,15.40
2018-06-29T23:56:39.696Z,15.40
2018-06-29T23:59:07.276Z,15.40
